CheckWX is a tool to help pilots better visualize weather data.  It is not intended as a substitute for an official pre-flight weather briefing.

05:58:28 UTC

AYPY TAF
Port Moresby Jacksons International Airport
Port Moresby, Papua New Guinea
TAF AYPY 200101Z 2006/2106 34015KT 9999 -SHRA SCT018 BKN130 FM201000 34012KT 9999 SCT040 BKN140

Feb-20@
06:00 UTC

Feb-20 @ 06:00 UTC

Feb-20@
10:00 UTC

Feb-20 @ 10:00 UTC

TAF AYPY 200101Z 2006/2106 34015KT 9999 -SHRA SCT018 BKN130
Wind
  • 340° at 15 KTS
Visibility
10,000+ meters
Conditions
Light Rain
Cloud Levels
  • Scattered at 1,800' AGL
  • Broken at 13,000' AGL

Feb-20@
10:00 UTC

Feb-20 @ 10:00 UTC

Feb-21@
06:00 UTC

Feb-21 @ 06:00 UTC

FM201000 34012KT 9999 SCT040 BKN140

From

FromStandard forecast or significant change

Wind
  • 340° at 12 KTS
Visibility
10,000+ meters
Cloud Levels
  • Scattered at 4,000' AGL
  • Broken at 14,000' AGL